sensor_id;sensor_type;location;lat;lon;timestamp;P1;durP1;ratioP1;P2;durP2;ratioP2
20022;SDS011;10172;42.054;24.546;2023-08-08T00:01:43;2.67;;;1.02;;
20022;SDS011;10172;42.054;24.546;2023-08-08T00:04:09;1.65;;;0.90;;
20022;SDS011;10172;42.054;24.546;2023-08-08T00:06:36;1.77;;;0.80;;
20022;SDS011;10172;42.054;24.546;2023-08-08T00:09:02;2.38;;;0.95;;
20022;SDS011;10172;42.054;24.546;2023-08-08T00:11:28;2.13;;;0.82;;
20022;SDS011;10172;42.054;24.546;2023-08-08T00:13:55;1.25;;;0.73;;
20022;SDS011;10172;42.054;24.546;2023-08-08T00:16:20;1.88;;;0.70;;
20022;SDS011;10172;42.054;24.546;2023-08-08T00:18:46;1.58;;;0.50;;
20022;SDS011;10172;42.054;24.546;2023-08-08T00:21:12;1.02;;;0.43;;
20022;SDS011;10172;42.054;24.546;2023-08-08T00:23:37;1.42;;;0.70;;
20022;SDS011;10172;42.054;24.546;2023-08-08T00:26:03;3.65;;;0.95;;
20022;SDS011;10172;42.054;24.546;2023-08-08T00:28:28;0.93;;;0.50;;
20022;SDS011;10172;42.054;24.546;2023-08-08T00:30:54;1.20;;;0.50;;
20022;SDS011;10172;42.054;24.546;2023-08-08T00:33:19;2.00;;;0.90;;
20022;SDS011;10172;42.054;24.546;2023-08-08T00:35:45;1.70;;;0.60;;
20022;SDS011;10172;42.054;24.546;2023-08-08T00:38:10;0.28;;;0.20;;
20022;SDS011;10172;42.054;24.546;2023-08-08T00:40:36;1.85;;;0.60;;
20022;SDS011;10172;42.054;24.546;2023-08-08T00:43:01;1.25;;;0.57;;
20022;SDS011;10172;42.054;24.546;2023-08-08T00:45:27;0.75;;;0.50;;
20022;SDS011;10172;42.054;24.546;2023-08-08T00:47:53;0.70;;;0.40;;
20022;SDS011;10172;42.054;24.546;2023-08-08T00:50:19;0.55;;;0.45;;
20022;SDS011;10172;42.054;24.546;2023-08-08T00:52:45;2.38;;;0.75;;
20022;SDS011;10172;42.054;24.546;2023-08-08T00:55:11;1.60;;;0.57;;
20022;SDS011;10172;42.054;24.546;2023-08-08T00:57:37;0.70;;;0.50;;
20022;SDS011;10172;42.054;24.546;2023-08-08T01:00:06;1.48;;;0.60;;
20022;SDS011;10172;42.054;24.546;2023-08-08T01:02:35;0.68;;;0.50;;
20022;SDS011;10172;42.054;24.546;2023-08-08T01:05:01;1.02;;;0.60;;
20022;SDS011;10172;42.054;24.546;2023-08-08T01:10:26;0.82;;;0.60;;
20022;SDS011;10172;42.054;24.546;2023-08-08T01:13:02;1.50;;;0.70;;
20022;SDS011;10172;42.054;24.546;2023-08-08T01:15:33;2.08;;;0.70;;
20022;SDS011;10172;42.054;24.546;2023-08-08T01:18:03;2.47;;;0.52;;
20022;SDS011;10172;42.054;24.546;2023-08-08T01:20:30;0.73;;;0.60;;
20022;SDS011;10172;42.054;24.546;2023-08-08T01:25:56;1.75;;;0.55;;
20022;SDS011;10172;42.054;24.546;2023-08-08T01:28:23;1.23;;;0.70;;
20022;SDS011;10172;42.054;24.546;2023-08-08T01:30:49;1.42;;;0.55;;
20022;SDS011;10172;42.054;24.546;2023-08-08T01:33:15;0.85;;;0.40;;
20022;SDS011;10172;42.054;24.546;2023-08-08T01:35:41;0.80;;;0.40;;
20022;SDS011;10172;42.054;24.546;2023-08-08T01:40:44;0.35;;;0.35;;
20022;SDS011;10172;42.054;24.546;2023-08-08T01:43:11;0.40;;;0.40;;
20022;SDS011;10172;42.054;24.546;2023-08-08T01:45:37;0.85;;;0.55;;
20022;SDS011;10172;42.054;24.546;2023-08-08T01:48:12;0.88;;;0.63;;
20022;SDS011;10172;42.054;24.546;2023-08-08T01:50:38;0.68;;;0.50;;
20022;SDS011;10172;42.054;24.546;2023-08-08T01:53:03;0.73;;;0.50;;
20022;SDS011;10172;42.054;24.546;2023-08-08T01:55:30;1.92;;;0.60;;
20022;SDS011;10172;42.054;24.546;2023-08-08T01:57:55;0.98;;;0.50;;
20022;SDS011;10172;42.054;24.546;2023-08-08T02:00:21;1.48;;;0.70;;
20022;SDS011;10172;42.054;24.546;2023-08-08T02:02:47;2.15;;;0.80;;
20022;SDS011;10172;42.054;24.546;2023-08-08T02:05:12;0.55;;;0.50;;
20022;SDS011;10172;42.054;24.546;2023-08-08T02:07:38;0.60;;;0.52;;
20022;SDS011;10172;42.054;24.546;2023-08-08T02:10:03;2.50;;;0.65;;
20022;SDS011;10172;42.054;24.546;2023-08-08T02:12:29;1.70;;;0.70;;
20022;SDS011;10172;42.054;24.546;2023-08-08T02:14:56;1.80;;;0.70;;
20022;SDS011;10172;42.054;24.546;2023-08-08T02:17:22;2.15;;;0.60;;
20022;SDS011;10172;42.054;24.546;2023-08-08T02:19:47;0.75;;;0.50;;
20022;SDS011;10172;42.054;24.546;2023-08-08T02:22:13;0.80;;;0.50;;
20022;SDS011;10172;42.054;24.546;2023-08-08T02:24:38;0.90;;;0.43;;
20022;SDS011;10172;42.054;24.546;2023-08-08T02:27:04;0.75;;;0.47;;
20022;SDS011;10172;42.054;24.546;2023-08-08T02:29:30;0.50;;;0.40;;
20022;SDS011;10172;42.054;24.546;2023-08-08T02:31:55;1.52;;;0.60;;
20022;SDS011;10172;42.054;24.546;2023-08-08T02:34:21;0.57;;;0.50;;
20022;SDS011;10172;42.054;24.546;2023-08-08T02:36:46;2.13;;;0.52;;
20022;SDS011;10172;42.054;24.546;2023-08-08T02:39:12;0.70;;;0.50;;
20022;SDS011;10172;42.054;24.546;2023-08-08T02:41:37;0.55;;;0.50;;
20022;SDS011;10172;42.054;24.546;2023-08-08T02:44:03;0.40;;;0.40;;
20022;SDS011;10172;42.054;24.546;2023-08-08T02:46:28;0.47;;;0.35;;
20022;SDS011;10172;42.054;24.546;2023-08-08T02:48:54;0.50;;;0.40;;
20022;SDS011;10172;42.054;24.546;2023-08-08T02:51:19;0.90;;;0.40;;
20022;SDS011;10172;42.054;24.546;2023-08-08T02:53:44;0.70;;;0.40;;
20022;SDS011;10172;42.054;24.546;2023-08-08T02:56:10;0.82;;;0.50;;
20022;SDS011;10172;42.054;24.546;2023-08-08T02:58:35;0.47;;;0.30;;
20022;SDS011;10172;42.054;24.546;2023-08-08T03:01:01;0.68;;;0.32;;
20022;SDS011;10172;42.054;24.546;2023-08-08T03:03:26;0.77;;;0.38;;
20022;SDS011;10172;42.054;24.546;2023-08-08T03:05:52;0.73;;;0.50;;
20022;SDS011;10172;42.054;24.546;2023-08-08T03:08:17;0.38;;;0.30;;
20022;SDS011;10172;42.054;24.546;2023-08-08T03:10:43;0.88;;;0.30;;
20022;SDS011;10172;42.054;24.546;2023-08-08T03:13:08;0.40;;;0.30;;
20022;SDS011;10172;42.054;24.546;2023-08-08T03:15:34;0.80;;;0.43;;
20022;SDS011;10172;42.054;24.546;2023-08-08T03:18:00;1.33;;;0.57;;
20022;SDS011;10172;42.054;24.546;2023-08-08T03:20:26;0.68;;;0.50;;
20022;SDS011;10172;42.054;24.546;2023-08-08T03:22:51;1.23;;;0.60;;
20022;SDS011;10172;42.054;24.546;2023-08-08T03:25:17;0.60;;;0.45;;
20022;SDS011;10172;42.054;24.546;2023-08-08T03:27:42;1.20;;;0.50;;
20022;SDS011;10172;42.054;24.546;2023-08-08T03:30:08;0.35;;;0.30;;
20022;SDS011;10172;42.054;24.546;2023-08-08T03:32:34;2.00;;;0.52;;
20022;SDS011;10172;42.054;24.546;2023-08-08T03:34:59;0.38;;;0.30;;
20022;SDS011;10172;42.054;24.546;2023-08-08T03:37:25;1.10;;;0.52;;
20022;SDS011;10172;42.054;24.546;2023-08-08T03:39:50;0.52;;;0.30;;
20022;SDS011;10172;42.054;24.546;2023-08-08T03:42:16;1.02;;;0.40;;
20022;SDS011;10172;42.054;24.546;2023-08-08T03:44:42;1.30;;;0.45;;
20022;SDS011;10172;42.054;24.546;2023-08-08T03:47:07;0.73;;;0.40;;
20022;SDS011;10172;42.054;24.546;2023-08-08T03:49:33;1.58;;;0.60;;
20022;SDS011;10172;42.054;24.546;2023-08-08T03:51:58;0.68;;;0.40;;
20022;SDS011;10172;42.054;24.546;2023-08-08T03:54:23;0.63;;;0.50;;
20022;SDS011;10172;42.054;24.546;2023-08-08T03:56:49;0.20;;;0.20;;
20022;SDS011;10172;42.054;24.546;2023-08-08T03:59:14;0.77;;;0.40;;
20022;SDS011;10172;42.054;24.546;2023-08-08T04:01:40;0.10;;;0.10;;
20022;SDS011;10172;42.054;24.546;2023-08-08T04:04:05;1.60;;;0.50;;
20022;SDS011;10172;42.054;24.546;2023-08-08T04:06:31;0.63;;;0.60;;
20022;SDS011;10172;42.054;24.546;2023-08-08T04:08:56;1.50;;;0.40;;
20022;SDS011;10172;42.054;24.546;2023-08-08T04:11:22;0.90;;;0.60;;
20022;SDS011;10172;42.054;24.546;2023-08-08T04:13:47;2.85;;;0.60;;
20022;SDS011;10172;42.054;24.546;2023-08-08T04:16:13;0.80;;;0.60;;
20022;SDS011;10172;42.054;24.546;2023-08-08T04:18:38;1.77;;;0.80;;
20022;SDS011;10172;42.054;24.546;2023-08-08T04:21:04;11.25;;;0.40;;
20022;SDS011;10172;42.054;24.546;2023-08-08T04:23:29;0.47;;;0.47;;
20022;SDS011;10172;42.054;24.546;2023-08-08T04:25:55;1.20;;;0.75;;
20022;SDS011;10172;42.054;24.546;2023-08-08T04:28:20;1.15;;;0.75;;
20022;SDS011;10172;42.054;24.546;2023-08-08T04:30:46;2.13;;;1.08;;
20022;SDS011;10172;42.054;24.546;2023-08-08T04:33:11;1.38;;;0.88;;
20022;SDS011;10172;42.054;24.546;2023-08-08T04:35:37;1.33;;;0.90;;
20022;SDS011;10172;42.054;24.546;2023-08-08T04:38:02;1.20;;;0.70;;
20022;SDS011;10172;42.054;24.546;2023-08-08T04:40:28;0.88;;;0.70;;
20022;SDS011;10172;42.054;24.546;2023-08-08T04:42:54;0.98;;;0.70;;
20022;SDS011;10172;42.054;24.546;2023-08-08T04:45:19;1.13;;;0.70;;
20022;SDS011;10172;42.054;24.546;2023-08-08T04:47:46;0.95;;;0.68;;
20022;SDS011;10172;42.054;24.546;2023-08-08T04:50:12;0.55;;;0.50;;
20022;SDS011;10172;42.054;24.546;2023-08-08T04:52:37;0.70;;;0.63;;
20022;SDS011;10172;42.054;24.546;2023-08-08T04:55:03;0.82;;;0.55;;
20022;SDS011;10172;42.054;24.546;2023-08-08T04:57:28;0.88;;;0.60;;
20022;SDS011;10172;42.054;24.546;2023-08-08T04:59:54;2.00;;;0.70;;
20022;SDS011;10172;42.054;24.546;2023-08-08T05:02:19;1.17;;;0.73;;
20022;SDS011;10172;42.054;24.546;2023-08-08T05:04:45;1.67;;;0.85;;
20022;SDS011;10172;42.054;24.546;2023-08-08T05:07:10;0.73;;;0.60;;
20022;SDS011;10172;42.054;24.546;2023-08-08T05:09:36;1.05;;;0.75;;
20022;SDS011;10172;42.054;24.546;2023-08-08T05:12:01;0.93;;;0.65;;
20022;SDS011;10172;42.054;24.546;2023-08-08T05:14:27;1.20;;;0.80;;
20022;SDS011;10172;42.054;24.546;2023-08-08T05:16:52;1.17;;;0.60;;
20022;SDS011;10172;42.054;24.546;2023-08-08T05:19:18;1.25;;;0.90;;
20022;SDS011;10172;42.054;24.546;2023-08-08T05:21:43;1.73;;;1.20;;
20022;SDS011;10172;42.054;24.546;2023-08-08T05:24:09;2.20;;;0.85;;
20022;SDS011;10172;42.054;24.546;2023-08-08T05:26:34;1.38;;;0.82;;
20022;SDS011;10172;42.054;24.546;2023-08-08T05:29:00;1.63;;;1.00;;
20022;SDS011;10172;42.054;24.546;2023-08-08T05:31:25;1.30;;;0.95;;
20022;SDS011;10172;42.054;24.546;2023-08-08T05:33:51;1.63;;;0.90;;
20022;SDS011;10172;42.054;24.546;2023-08-08T05:36:16;1.08;;;0.90;;
20022;SDS011;10172;42.054;24.546;2023-08-08T05:38:42;1.50;;;0.90;;
20022;SDS011;10172;42.054;24.546;2023-08-08T05:41:07;3.53;;;1.10;;
20022;SDS011;10172;42.054;24.546;2023-08-08T05:43:33;1.02;;;0.90;;
20022;SDS011;10172;42.054;24.546;2023-08-08T05:45:58;1.88;;;1.38;;
20022;SDS011;10172;42.054;24.546;2023-08-08T05:48:24;1.25;;;1.10;;
20022;SDS011;10172;42.054;24.546;2023-08-08T05:50:49;1.98;;;1.33;;
20022;SDS011;10172;42.054;24.546;2023-08-08T05:53:15;3.53;;;1.33;;
20022;SDS011;10172;42.054;24.546;2023-08-08T05:55:41;1.65;;;1.20;;
20022;SDS011;10172;42.054;24.546;2023-08-08T05:58:09;3.10;;;1.35;;
20022;SDS011;10172;42.054;24.546;2023-08-08T06:00:35;2.00;;;1.27;;
20022;SDS011;10172;42.054;24.546;2023-08-08T06:03:01;1.63;;;1.20;;
20022;SDS011;10172;42.054;24.546;2023-08-08T06:05:26;2.60;;;1.00;;
20022;SDS011;10172;42.054;24.546;2023-08-08T06:07:53;1.85;;;1.30;;
20022;SDS011;10172;42.054;24.546;2023-08-08T06:10:20;2.53;;;1.48;;
20022;SDS011;10172;42.054;24.546;2023-08-08T06:12:45;1.35;;;0.90;;
20022;SDS011;10172;42.054;24.546;2023-08-08T06:15:11;1.38;;;1.02;;
20022;SDS011;10172;42.054;24.546;2023-08-08T06:17:36;2.22;;;1.27;;
20022;SDS011;10172;42.054;24.546;2023-08-08T06:20:02;2.58;;;1.33;;
20022;SDS011;10172;42.054;24.546;2023-08-08T06:22:28;2.00;;;1.13;;
20022;SDS011;10172;42.054;24.546;2023-08-08T06:24:53;1.60;;;1.08;;
20022;SDS011;10172;42.054;24.546;2023-08-08T06:27:19;1.10;;;1.00;;
20022;SDS011;10172;42.054;24.546;2023-08-08T06:29:44;1.10;;;1.00;;
20022;SDS011;10172;42.054;24.546;2023-08-08T06:32:09;2.72;;;0.88;;
20022;SDS011;10172;42.054;24.546;2023-08-08T06:34:35;1.30;;;1.20;;
20022;SDS011;10172;42.054;24.546;2023-08-08T06:37:00;1.27;;;1.00;;
20022;SDS011;10172;42.054;24.546;2023-08-08T06:39:26;1.08;;;0.98;;
20022;SDS011;10172;42.054;24.546;2023-08-08T06:41:51;2.05;;;0.90;;
20022;SDS011;10172;42.054;24.546;2023-08-08T06:44:17;3.20;;;0.80;;
20022;SDS011;10172;42.054;24.546;2023-08-08T06:46:43;1.80;;;1.30;;
20022;SDS011;10172;42.054;24.546;2023-08-08T06:49:08;1.63;;;1.27;;
20022;SDS011;10172;42.054;24.546;2023-08-08T06:51:34;3.30;;;1.10;;
20022;SDS011;10172;42.054;24.546;2023-08-08T06:54:00;1.70;;;1.10;;
20022;SDS011;10172;42.054;24.546;2023-08-08T06:56:25;1.27;;;0.95;;
20022;SDS011;10172;42.054;24.546;2023-08-08T06:58:51;1.02;;;0.80;;
20022;SDS011;10172;42.054;24.546;2023-08-08T07:01:17;1.95;;;0.75;;
20022;SDS011;10172;42.054;24.546;2023-08-08T07:03:43;1.10;;;1.00;;
20022;SDS011;10172;42.054;24.546;2023-08-08T07:06:09;1.13;;;0.65;;
20022;SDS011;10172;42.054;24.546;2023-08-08T07:08:35;1.38;;;0.98;;
20022;SDS011;10172;42.054;24.546;2023-08-08T07:11:00;1.65;;;0.90;;
20022;SDS011;10172;42.054;24.546;2023-08-08T07:13:26;1.65;;;1.10;;
20022;SDS011;10172;42.054;24.546;2023-08-08T07:15:51;2.28;;;1.30;;
20022;SDS011;10172;42.054;24.546;2023-08-08T07:18:17;1.33;;;1.08;;
20022;SDS011;10172;42.054;24.546;2023-08-08T07:20:42;1.95;;;1.00;;
20022;SDS011;10172;42.054;24.546;2023-08-08T07:23:08;0.95;;;0.88;;
20022;SDS011;10172;42.054;24.546;2023-08-08T07:25:34;1.10;;;0.90;;
20022;SDS011;10172;42.054;24.546;2023-08-08T07:28:00;3.22;;;1.02;;
20022;SDS011;10172;42.054;24.546;2023-08-08T07:30:25;1.33;;;0.90;;
20022;SDS011;10172;42.054;24.546;2023-08-08T07:32:51;1.17;;;0.90;;
20022;SDS011;10172;42.054;24.546;2023-08-08T07:35:16;1.80;;;1.20;;
20022;SDS011;10172;42.054;24.546;2023-08-08T07:37:42;1.15;;;0.93;;
20022;SDS011;10172;42.054;24.546;2023-08-08T07:40:17;1.20;;;1.00;;
20022;SDS011;10172;42.054;24.546;2023-08-08T07:42:45;1.13;;;0.98;;
20022;SDS011;10172;42.054;24.546;2023-08-08T07:45:12;1.15;;;0.90;;
20022;SDS011;10172;42.054;24.546;2023-08-08T07:47:37;1.17;;;0.90;;
20022;SDS011;10172;42.054;24.546;2023-08-08T07:50:03;2.42;;;1.10;;
20022;SDS011;10172;42.054;24.546;2023-08-08T07:52:29;1.35;;;0.80;;
20022;SDS011;10172;42.054;24.546;2023-08-08T07:54:54;1.13;;;0.82;;
20022;SDS011;10172;42.054;24.546;2023-08-08T07:57:20;1.80;;;1.02;;
20022;SDS011;10172;42.054;24.546;2023-08-08T07:59:45;1.30;;;0.98;;
20022;SDS011;10172;42.054;24.546;2023-08-08T08:02:11;1.10;;;0.90;;
20022;SDS011;10172;42.054;24.546;2023-08-08T08:04:36;1.52;;;1.15;;
20022;SDS011;10172;42.054;24.546;2023-08-08T08:07:01;1.15;;;0.80;;
20022;SDS011;10172;42.054;24.546;2023-08-08T08:09:27;3.20;;;0.95;;
20022;SDS011;10172;42.054;24.546;2023-08-08T08:11:53;0.82;;;0.70;;
20022;SDS011;10172;42.054;24.546;2023-08-08T08:14:19;0.82;;;0.80;;
20022;SDS011;10172;42.054;24.546;2023-08-08T08:16:45;1.17;;;0.90;;
20022;SDS011;10172;42.054;24.546;2023-08-08T08:19:11;1.48;;;0.88;;
20022;SDS011;10172;42.054;24.546;2023-08-08T08:21:36;0.60;;;0.60;;
20022;SDS011;10172;42.054;24.546;2023-08-08T08:24:02;0.93;;;0.82;;
20022;SDS011;10172;42.054;24.546;2023-08-08T08:26:28;1.88;;;0.70;;
20022;SDS011;10172;42.054;24.546;2023-08-08T08:28:54;1.33;;;0.60;;
20022;SDS011;10172;42.054;24.546;2023-08-08T08:31:19;0.57;;;0.50;;
20022;SDS011;10172;42.054;24.546;2023-08-08T08:33:45;0.80;;;0.70;;
20022;SDS011;10172;42.054;24.546;2023-08-08T08:36:11;1.33;;;0.70;;
20022;SDS011;10172;42.054;24.546;2023-08-08T08:38:36;1.75;;;0.80;;
20022;SDS011;10172;42.054;24.546;2023-08-08T08:41:02;1.75;;;0.85;;
20022;SDS011;10172;42.054;24.546;2023-08-08T08:43:28;0.90;;;0.60;;
20022;SDS011;10172;42.054;24.546;2023-08-08T08:45:56;1.67;;;0.77;;
20022;SDS011;10172;42.054;24.546;2023-08-08T08:48:25;1.75;;;1.20;;
20022;SDS011;10172;42.054;24.546;2023-08-08T08:50:50;1.15;;;0.80;;
20022;SDS011;10172;42.054;24.546;2023-08-08T08:53:17;0.40;;;0.40;;
20022;SDS011;10172;42.054;24.546;2023-08-08T08:55:43;0.60;;;0.60;;
20022;SDS011;10172;42.054;24.546;2023-08-08T08:58:09;0.60;;;0.60;;
20022;SDS011;10172;42.054;24.546;2023-08-08T09:00:34;1.05;;;0.60;;
20022;SDS011;10172;42.054;24.546;2023-08-08T09:03:00;1.50;;;0.75;;
20022;SDS011;10172;42.054;24.546;2023-08-08T09:05:26;0.93;;;0.80;;
20022;SDS011;10172;42.054;24.546;2023-08-08T09:07:53;1.13;;;0.63;;
20022;SDS011;10172;42.054;24.546;2023-08-08T09:10:19;0.80;;;0.77;;
20022;SDS011;10172;42.054;24.546;2023-08-08T09:12:44;0.93;;;0.80;;
20022;SDS011;10172;42.054;24.546;2023-08-08T09:15:11;1.17;;;0.77;;
20022;SDS011;10172;42.054;24.546;2023-08-08T09:17:40;0.80;;;0.60;;
20022;SDS011;10172;42.054;24.546;2023-08-08T09:20:07;1.00;;;0.70;;
20022;SDS011;10172;42.054;24.546;2023-08-08T09:22:35;1.02;;;0.63;;
20022;SDS011;10172;42.054;24.546;2023-08-08T09:25:02;1.85;;;0.80;;
20022;SDS011;10172;42.054;24.546;2023-08-08T09:27:28;1.00;;;0.90;;
20022;SDS011;10172;42.054;24.546;2023-08-08T09:29:54;0.98;;;0.70;;
20022;SDS011;10172;42.054;24.546;2023-08-08T09:32:19;1.30;;;0.80;;
20022;SDS011;10172;42.054;24.546;2023-08-08T09:34:45;1.60;;;1.00;;
20022;SDS011;10172;42.054;24.546;2023-08-08T09:37:11;1.55;;;0.95;;
20022;SDS011;10172;42.054;24.546;2023-08-08T09:39:36;1.70;;;1.05;;
20022;SDS011;10172;42.054;24.546;2023-08-08T09:42:02;0.57;;;0.57;;
20022;SDS011;10172;42.054;24.546;2023-08-08T09:44:32;0.90;;;0.80;;
20022;SDS011;10172;42.054;24.546;2023-08-08T09:47:00;0.90;;;0.70;;
20022;SDS011;10172;42.054;24.546;2023-08-08T09:49:25;0.93;;;0.70;;
20022;SDS011;10172;42.054;24.546;2023-08-08T09:51:52;0.82;;;0.60;;
20022;SDS011;10172;42.054;24.546;2023-08-08T09:54:17;1.17;;;0.80;;
20022;SDS011;10172;42.054;24.546;2023-08-08T09:56:44;0.77;;;0.60;;
20022;SDS011;10172;42.054;24.546;2023-08-08T09:59:10;1.15;;;0.77;;
20022;SDS011;10172;42.054;24.546;2023-08-08T10:01:37;1.40;;;0.63;;
20022;SDS011;10172;42.054;24.546;2023-08-08T10:04:05;1.00;;;0.40;;
20022;SDS011;10172;42.054;24.546;2023-08-08T10:06:31;1.65;;;0.60;;
20022;SDS011;10172;42.054;24.546;2023-08-08T10:08:57;0.35;;;0.32;;
20022;SDS011;10172;42.054;24.546;2023-08-08T10:11:25;0.68;;;0.43;;
20022;SDS011;10172;42.054;24.546;2023-08-08T10:13:52;0.43;;;0.40;;
20022;SDS011;10172;42.054;24.546;2023-08-08T10:16:18;0.57;;;0.50;;
20022;SDS011;10172;42.054;24.546;2023-08-08T10:18:45;0.82;;;0.50;;
20022;SDS011;10172;42.054;24.546;2023-08-08T10:21:20;1.60;;;0.60;;
20022;SDS011;10172;42.054;24.546;2023-08-08T10:23:46;1.77;;;0.60;;
20022;SDS011;10172;42.054;24.546;2023-08-08T10:26:18;0.73;;;0.60;;
20022;SDS011;10172;42.054;24.546;2023-08-08T10:28:57;2.60;;;0.60;;
20022;SDS011;10172;42.054;24.546;2023-08-08T10:31:23;0.60;;;0.60;;
20022;SDS011;10172;42.054;24.546;2023-08-08T10:33:49;3.63;;;0.60;;
20022;SDS011;10172;42.054;24.546;2023-08-08T10:36:14;0.45;;;0.40;;
20022;SDS011;10172;42.054;24.546;2023-08-08T10:38:45;0.50;;;0.50;;
20022;SDS011;10172;42.054;24.546;2023-08-08T10:41:16;0.85;;;0.50;;
20022;SDS011;10172;42.054;24.546;2023-08-08T10:43:48;0.30;;;0.30;;
20022;SDS011;10172;42.054;24.546;2023-08-08T10:46:14;0.60;;;0.45;;
20022;SDS011;10172;42.054;24.546;2023-08-08T10:48:49;1.13;;;0.57;;
20022;SDS011;10172;42.054;24.546;2023-08-08T10:51:16;0.77;;;0.60;;
20022;SDS011;10172;42.054;24.546;2023-08-08T10:53:42;0.50;;;0.40;;
20022;SDS011;10172;42.054;24.546;2023-08-08T10:56:11;1.52;;;1.08;;
20022;SDS011;10172;42.054;24.546;2023-08-08T10:58:39;0.60;;;0.60;;
20022;SDS011;10172;42.054;24.546;2023-08-08T11:01:06;0.95;;;0.77;;
20022;SDS011;10172;42.054;24.546;2023-08-08T11:03:36;1.83;;;0.70;;
20022;SDS011;10172;42.054;24.546;2023-08-08T11:06:02;0.98;;;0.57;;
20022;SDS011;10172;42.054;24.546;2023-08-08T11:08:31;0.80;;;0.65;;
20022;SDS011;10172;42.054;24.546;2023-08-08T11:10:58;1.13;;;0.52;;
20022;SDS011;10172;42.054;24.546;2023-08-08T11:13:24;0.80;;;0.70;;
20022;SDS011;10172;42.054;24.546;2023-08-08T11:15:50;1.58;;;0.80;;
20022;SDS011;10172;42.054;24.546;2023-08-08T11:18:15;0.93;;;0.65;;
20022;SDS011;10172;42.054;24.546;2023-08-08T11:20:41;0.80;;;0.60;;
20022;SDS011;10172;42.054;24.546;2023-08-08T11:23:07;2.55;;;0.60;;
20022;SDS011;10172;42.054;24.546;2023-08-08T11:25:36;1.15;;;0.90;;
20022;SDS011;10172;42.054;24.546;2023-08-08T11:28:02;1.10;;;0.77;;
20022;SDS011;10172;42.054;24.546;2023-08-08T11:30:29;1.02;;;0.88;;
20022;SDS011;10172;42.054;24.546;2023-08-08T11:32:55;1.30;;;0.80;;
20022;SDS011;10172;42.054;24.546;2023-08-08T11:35:22;1.13;;;0.80;;
20022;SDS011;10172;42.054;24.546;2023-08-08T11:37:52;1.85;;;0.63;;
20022;SDS011;10172;42.054;24.546;2023-08-08T11:40:18;0.63;;;0.60;;
20022;SDS011;10172;42.054;24.546;2023-08-08T11:42:45;1.38;;;0.73;;
20022;SDS011;10172;42.054;24.546;2023-08-08T11:45:11;0.60;;;0.60;;
20022;SDS011;10172;42.054;24.546;2023-08-08T11:47:38;2.22;;;0.80;;
20022;SDS011;10172;42.054;24.546;2023-08-08T11:50:05;1.13;;;0.60;;
20022;SDS011;10172;42.054;24.546;2023-08-08T11:52:32;0.88;;;0.60;;
20022;SDS011;10172;42.054;24.546;2023-08-08T11:54:59;2.78;;;0.70;;
20022;SDS011;10172;42.054;24.546;2023-08-08T11:57:25;0.50;;;0.47;;
20022;SDS011;10172;42.054;24.546;2023-08-08T11:59:55;2.40;;;0.73;;
20022;SDS011;10172;42.054;24.546;2023-08-08T12:02:22;1.27;;;0.70;;
20022;SDS011;10172;42.054;24.546;2023-08-08T12:04:48;0.93;;;0.50;;
20022;SDS011;10172;42.054;24.546;2023-08-08T12:07:14;1.35;;;0.70;;
20022;SDS011;10172;42.054;24.546;2023-08-08T12:09:41;1.13;;;0.65;;
20022;SDS011;10172;42.054;24.546;2023-08-08T12:12:08;2.53;;;0.60;;
20022;SDS011;10172;42.054;24.546;2023-08-08T12:14:37;1.30;;;0.50;;
20022;SDS011;10172;42.054;24.546;2023-08-08T12:17:03;0.68;;;0.40;;
20022;SDS011;10172;42.054;24.546;2023-08-08T12:19:29;1.98;;;0.60;;
20022;SDS011;10172;42.054;24.546;2023-08-08T12:21:55;0.75;;;0.50;;
20022;SDS011;10172;42.054;24.546;2023-08-08T12:24:20;0.60;;;0.50;;
20022;SDS011;10172;42.054;24.546;2023-08-08T12:26:46;0.80;;;0.52;;
20022;SDS011;10172;42.054;24.546;2023-08-08T12:29:12;1.00;;;0.68;;
20022;SDS011;10172;42.054;24.546;2023-08-08T12:31:37;0.80;;;0.40;;
20022;SDS011;10172;42.054;24.546;2023-08-08T12:34:04;0.90;;;0.50;;
20022;SDS011;10172;42.054;24.546;2023-08-08T12:36:29;1.27;;;0.60;;
20022;SDS011;10172;42.054;24.546;2023-08-08T12:38:55;1.58;;;0.60;;
20022;SDS011;10172;42.054;24.546;2023-08-08T12:41:22;0.52;;;0.47;;
20022;SDS011;10172;42.054;24.546;2023-08-08T12:43:47;1.55;;;0.60;;
20022;SDS011;10172;42.054;24.546;2023-08-08T12:46:13;0.80;;;0.60;;
20022;SDS011;10172;42.054;24.546;2023-08-08T12:48:38;0.82;;;0.50;;
20022;SDS011;10172;42.054;24.546;2023-08-08T12:51:04;1.08;;;0.65;;
20022;SDS011;10172;42.054;24.546;2023-08-08T12:53:32;0.85;;;0.60;;
20022;SDS011;10172;42.054;24.546;2023-08-08T12:55:59;1.23;;;0.50;;
20022;SDS011;10172;42.054;24.546;2023-08-08T12:58:25;0.93;;;0.40;;
20022;SDS011;10172;42.054;24.546;2023-08-08T13:00:50;1.25;;;0.80;;
20022;SDS011;10172;42.054;24.546;2023-08-08T13:03:16;1.23;;;0.65;;
20022;SDS011;10172;42.054;24.546;2023-08-08T13:05:41;0.95;;;0.50;;
20022;SDS011;10172;42.054;24.546;2023-08-08T13:08:07;1.83;;;0.90;;
20022;SDS011;10172;42.054;24.546;2023-08-08T13:10:33;0.93;;;0.70;;
20022;SDS011;10172;42.054;24.546;2023-08-08T13:12:58;0.55;;;0.45;;
20022;SDS011;10172;42.054;24.546;2023-08-08T13:15:23;0.93;;;0.77;;
20022;SDS011;10172;42.054;24.546;2023-08-08T13:17:49;0.90;;;0.50;;
20022;SDS011;10172;42.054;24.546;2023-08-08T13:20:14;0.77;;;0.55;;
20022;SDS011;10172;42.054;24.546;2023-08-08T13:22:40;1.27;;;0.70;;
20022;SDS011;10172;42.054;24.546;2023-08-08T13:25:07;1.05;;;0.43;;
20022;SDS011;10172;42.054;24.546;2023-08-08T13:27:33;3.50;;;0.80;;
20022;SDS011;10172;42.054;24.546;2023-08-08T13:29:58;1.15;;;0.57;;
20022;SDS011;10172;42.054;24.546;2023-08-08T13:32:24;2.08;;;0.68;;
20022;SDS011;10172;42.054;24.546;2023-08-08T13:34:49;1.40;;;0.60;;
20022;SDS011;10172;42.054;24.546;2023-08-08T13:37:15;0.82;;;0.57;;
20022;SDS011;10172;42.054;24.546;2023-08-08T13:39:41;1.23;;;0.73;;
20022;SDS011;10172;42.054;24.546;2023-08-08T13:42:08;1.55;;;0.60;;
20022;SDS011;10172;42.054;24.546;2023-08-08T13:44:34;0.55;;;0.40;;
20022;SDS011;10172;42.054;24.546;2023-08-08T13:47:00;1.85;;;0.77;;
20022;SDS011;10172;42.054;24.546;2023-08-08T13:49:25;1.23;;;0.70;;
20022;SDS011;10172;42.054;24.546;2023-08-08T13:51:52;0.38;;;0.35;;
20022;SDS011;10172;42.054;24.546;2023-08-08T13:54:20;0.88;;;0.50;;
20022;SDS011;10172;42.054;24.546;2023-08-08T13:56:46;1.00;;;0.63;;
20022;SDS011;10172;42.054;24.546;2023-08-08T13:59:12;0.70;;;0.50;;
20022;SDS011;10172;42.054;24.546;2023-08-08T14:01:37;2.72;;;0.65;;
20022;SDS011;10172;42.054;24.546;2023-08-08T14:04:03;0.95;;;0.50;;
20022;SDS011;10172;42.054;24.546;2023-08-08T14:06:29;1.70;;;0.60;;
20022;SDS011;10172;42.054;24.546;2023-08-08T14:08:55;0.85;;;0.60;;
20022;SDS011;10172;42.054;24.546;2023-08-08T14:11:21;1.73;;;0.40;;
20022;SDS011;10172;42.054;24.546;2023-08-08T14:13:47;1.40;;;0.63;;
20022;SDS011;10172;42.054;24.546;2023-08-08T14:16:12;0.80;;;0.50;;
20022;SDS011;10172;42.054;24.546;2023-08-08T14:18:38;1.58;;;0.70;;
20022;SDS011;10172;42.054;24.546;2023-08-08T14:21:03;1.15;;;0.70;;
20022;SDS011;10172;42.054;24.546;2023-08-08T14:23:30;1.13;;;0.60;;
20022;SDS011;10172;42.054;24.546;2023-08-08T14:25:56;0.80;;;0.43;;
20022;SDS011;10172;42.054;24.546;2023-08-08T14:28:21;0.93;;;0.60;;
20022;SDS011;10172;42.054;24.546;2023-08-08T14:30:47;1.50;;;0.80;;
20022;SDS011;10172;42.054;24.546;2023-08-08T14:33:15;0.95;;;0.50;;
20022;SDS011;10172;42.054;24.546;2023-08-08T14:35:42;0.80;;;0.52;;